sensor_id;sensor_type;location;lat;lon;timestamp;P1;durP1;ratioP1;P2;durP2;ratioP2
74213;SDS011;62576;55.694;37.494;2023-12-28T00:00:46;5.47;;;2.20;;
74213;SDS011;62576;55.694;37.494;2023-12-28T00:03:17;4.50;;;2.13;;
74213;SDS011;62576;55.694;37.494;2023-12-28T00:05:47;4.88;;;2.75;;
74213;SDS011;62576;55.694;37.494;2023-12-28T00:08:17;4.82;;;2.70;;
74213;SDS011;62576;55.694;37.494;2023-12-28T00:10:47;4.22;;;2.17;;
74213;SDS011;62576;55.694;37.494;2023-12-28T00:13:17;5.00;;;2.45;;
74213;SDS011;62576;55.694;37.494;2023-12-28T00:15:47;6.20;;;2.75;;
74213;SDS011;62576;55.694;37.494;2023-12-28T00:18:19;6.57;;;3.00;;
74213;SDS011;62576;55.694;37.494;2023-12-28T00:20:49;4.93;;;2.05;;
74213;SDS011;62576;55.694;37.494;2023-12-28T00:23:18;4.15;;;2.10;;
74213;SDS011;62576;55.694;37.494;2023-12-28T00:25:49;4.90;;;2.00;;
74213;SDS011;62576;55.694;37.494;2023-12-28T00:28:19;5.18;;;2.00;;
74213;SDS011;62576;55.694;37.494;2023-12-28T00:30:49;4.55;;;2.05;;
74213;SDS011;62576;55.694;37.494;2023-12-28T00:33:21;7.25;;;2.30;;
74213;SDS011;62576;55.694;37.494;2023-12-28T00:35:50;4.72;;;2.00;;
74213;SDS011;62576;55.694;37.494;2023-12-28T00:38:20;5.38;;;2.70;;
74213;SDS011;62576;55.694;37.494;2023-12-28T00:40:47;4.35;;;1.90;;
74213;SDS011;62576;55.694;37.494;2023-12-28T00:43:17;4.28;;;2.05;;
74213;SDS011;62576;55.694;37.494;2023-12-28T00:45:47;5.32;;;2.17;;
74213;SDS011;62576;55.694;37.494;2023-12-28T00:48:17;7.18;;;2.50;;
74213;SDS011;62576;55.694;37.494;2023-12-28T00:50:45;3.58;;;1.75;;
74213;SDS011;62576;55.694;37.494;2023-12-28T00:53:15;4.90;;;2.05;;
74213;SDS011;62576;55.694;37.494;2023-12-28T00:55:45;4.55;;;2.10;;
74213;SDS011;62576;55.694;37.494;2023-12-28T00:58:15;4.93;;;2.10;;
74213;SDS011;62576;55.694;37.494;2023-12-28T01:00:45;4.07;;;1.80;;
74213;SDS011;62576;55.694;37.494;2023-12-28T01:03:15;3.22;;;1.77;;
74213;SDS011;62576;55.694;37.494;2023-12-28T01:05:46;5.80;;;2.10;;
74213;SDS011;62576;55.694;37.494;2023-12-28T01:08:18;4.32;;;2.10;;
74213;SDS011;62576;55.694;37.494;2023-12-28T01:10:51;4.53;;;1.92;;
74213;SDS011;62576;55.694;37.494;2023-12-28T01:13:21;3.88;;;1.75;;
74213;SDS011;62576;55.694;37.494;2023-12-28T01:15:51;4.15;;;2.00;;
74213;SDS011;62576;55.694;37.494;2023-12-28T01:18:21;4.63;;;1.92;;
74213;SDS011;62576;55.694;37.494;2023-12-28T01:20:52;4.47;;;2.00;;
74213;SDS011;62576;55.694;37.494;2023-12-28T01:23:22;5.25;;;2.10;;
74213;SDS011;62576;55.694;37.494;2023-12-28T01:25:52;3.58;;;1.80;;
74213;SDS011;62576;55.694;37.494;2023-12-28T01:28:22;4.25;;;1.88;;
74213;SDS011;62576;55.694;37.494;2023-12-28T01:30:52;4.90;;;2.10;;
74213;SDS011;62576;55.694;37.494;2023-12-28T01:33:27;6.15;;;2.13;;
74213;SDS011;62576;55.694;37.494;2023-12-28T01:35:59;4.28;;;2.00;;
74213;SDS011;62576;55.694;37.494;2023-12-28T01:38:29;3.30;;;1.70;;
74213;SDS011;62576;55.694;37.494;2023-12-28T01:40:55;4.00;;;1.98;;
74213;SDS011;62576;55.694;37.494;2023-12-28T01:43:25;3.58;;;1.85;;
74213;SDS011;62576;55.694;37.494;2023-12-28T01:45:55;4.70;;;2.10;;
74213;SDS011;62576;55.694;37.494;2023-12-28T01:48:25;4.93;;;2.20;;
74213;SDS011;62576;55.694;37.494;2023-12-28T01:50:55;4.22;;;1.92;;
74213;SDS011;62576;55.694;37.494;2023-12-28T01:53:27;5.03;;;2.20;;
74213;SDS011;62576;55.694;37.494;2023-12-28T01:55:54;4.85;;;1.98;;
74213;SDS011;62576;55.694;37.494;2023-12-28T01:58:24;4.25;;;2.15;;
74213;SDS011;62576;55.694;37.494;2023-12-28T02:00:55;4.82;;;2.00;;
74213;SDS011;62576;55.694;37.494;2023-12-28T02:03:25;4.93;;;2.30;;
74213;SDS011;62576;55.694;37.494;2023-12-28T02:05:55;5.45;;;2.33;;
74213;SDS011;62576;55.694;37.494;2023-12-28T02:08:26;4.50;;;2.10;;
74213;SDS011;62576;55.694;37.494;2023-12-28T02:10:56;5.45;;;2.22;;
74213;SDS011;62576;55.694;37.494;2023-12-28T02:13:26;4.50;;;2.10;;
74213;SDS011;62576;55.694;37.494;2023-12-28T02:15:57;13.18;;;4.95;;
74213;SDS011;62576;55.694;37.494;2023-12-28T02:18:29;5.63;;;2.10;;
74213;SDS011;62576;55.694;37.494;2023-12-28T02:20:59;5.07;;;2.28;;
74213;SDS011;62576;55.694;37.494;2023-12-28T02:23:33;5.22;;;2.50;;
74213;SDS011;62576;55.694;37.494;2023-12-28T02:26:05;4.97;;;2.80;;
74213;SDS011;62576;55.694;37.494;2023-12-28T02:28:33;6.95;;;2.70;;
74213;SDS011;62576;55.694;37.494;2023-12-28T02:31:03;5.53;;;2.20;;
74213;SDS011;62576;55.694;37.494;2023-12-28T02:33:35;5.65;;;2.00;;
74213;SDS011;62576;55.694;37.494;2023-12-28T02:36:07;5.55;;;2.30;;
74213;SDS011;62576;55.694;37.494;2023-12-28T02:38:38;5.85;;;2.28;;
74213;SDS011;62576;55.694;37.494;2023-12-28T02:41:08;7.15;;;2.65;;
74213;SDS011;62576;55.694;37.494;2023-12-28T02:43:38;6.18;;;2.33;;
74213;SDS011;62576;55.694;37.494;2023-12-28T02:46:08;4.85;;;2.30;;
74213;SDS011;62576;55.694;37.494;2023-12-28T02:48:38;4.93;;;2.33;;
74213;SDS011;62576;55.694;37.494;2023-12-28T02:51:08;4.10;;;2.13;;
74213;SDS011;62576;55.694;37.494;2023-12-28T02:53:38;5.72;;;2.30;;
74213;SDS011;62576;55.694;37.494;2023-12-28T02:56:09;7.70;;;2.55;;
74213;SDS011;62576;55.694;37.494;2023-12-28T02:58:39;5.50;;;1.88;;
74213;SDS011;62576;55.694;37.494;2023-12-28T03:01:09;4.70;;;2.10;;
74213;SDS011;62576;55.694;37.494;2023-12-28T03:03:39;5.25;;;2.30;;
74213;SDS011;62576;55.694;37.494;2023-12-28T03:06:09;6.07;;;2.20;;
74213;SDS011;62576;55.694;37.494;2023-12-28T03:08:39;6.68;;;2.25;;
74213;SDS011;62576;55.694;37.494;2023-12-28T03:11:10;4.57;;;2.30;;
74213;SDS011;62576;55.694;37.494;2023-12-28T03:13:40;7.38;;;2.88;;
74213;SDS011;62576;55.694;37.494;2023-12-28T03:16:10;10.55;;;4.20;;
74213;SDS011;62576;55.694;37.494;2023-12-28T03:18:41;5.97;;;2.40;;
74213;SDS011;62576;55.694;37.494;2023-12-28T03:21:11;4.90;;;2.30;;
74213;SDS011;62576;55.694;37.494;2023-12-28T03:23:40;5.28;;;2.42;;
74213;SDS011;62576;55.694;37.494;2023-12-28T03:26:12;7.47;;;2.53;;
74213;SDS011;62576;55.694;37.494;2023-12-28T03:28:41;5.55;;;2.58;;
74213;SDS011;62576;55.694;37.494;2023-12-28T03:31:11;5.65;;;2.88;;
74213;SDS011;62576;55.694;37.494;2023-12-28T03:33:41;6.03;;;3.30;;
74213;SDS011;62576;55.694;37.494;2023-12-28T03:36:17;5.97;;;2.88;;
74213;SDS011;62576;55.694;37.494;2023-12-28T03:38:47;6.38;;;2.97;;
74213;SDS011;62576;55.694;37.494;2023-12-28T03:41:18;5.28;;;3.00;;
74213;SDS011;62576;55.694;37.494;2023-12-28T03:43:48;6.63;;;2.60;;
74213;SDS011;62576;55.694;37.494;2023-12-28T03:46:18;5.75;;;2.88;;
74213;SDS011;62576;55.694;37.494;2023-12-28T03:48:48;5.63;;;2.47;;
74213;SDS011;62576;55.694;37.494;2023-12-28T03:51:17;5.53;;;3.13;;
74213;SDS011;62576;55.694;37.494;2023-12-28T03:53:47;6.20;;;2.40;;
74213;SDS011;62576;55.694;37.494;2023-12-28T03:56:20;5.95;;;2.50;;
74213;SDS011;62576;55.694;37.494;2023-12-28T03:58:49;5.90;;;2.55;;
74213;SDS011;62576;55.694;37.494;2023-12-28T04:01:19;5.30;;;2.30;;
74213;SDS011;62576;55.694;37.494;2023-12-28T04:03:49;5.50;;;2.80;;
74213;SDS011;62576;55.694;37.494;2023-12-28T04:06:19;3.80;;;1.88;;
74213;SDS011;62576;55.694;37.494;2023-12-28T04:08:46;5.35;;;2.78;;
74213;SDS011;62576;55.694;37.494;2023-12-28T04:11:20;4.63;;;2.40;;
74213;SDS011;62576;55.694;37.494;2023-12-28T04:13:50;5.15;;;2.70;;
74213;SDS011;62576;55.694;37.494;2023-12-28T04:16:20;4.32;;;2.50;;
74213;SDS011;62576;55.694;37.494;2023-12-28T04:18:50;5.40;;;2.47;;
74213;SDS011;62576;55.694;37.494;2023-12-28T04:21:20;4.28;;;2.15;;
74213;SDS011;62576;55.694;37.494;2023-12-28T04:23:50;6.80;;;3.10;;
74213;SDS011;62576;55.694;37.494;2023-12-28T04:26:21;5.32;;;2.58;;
74213;SDS011;62576;55.694;37.494;2023-12-28T04:28:54;7.30;;;2.80;;
74213;SDS011;62576;55.694;37.494;2023-12-28T04:31:24;4.53;;;2.10;;
74213;SDS011;62576;55.694;37.494;2023-12-28T04:33:54;5.82;;;2.47;;
74213;SDS011;62576;55.694;37.494;2023-12-28T04:36:24;4.35;;;2.60;;
74213;SDS011;62576;55.694;37.494;2023-12-28T04:38:54;6.68;;;3.53;;
74213;SDS011;62576;55.694;37.494;2023-12-28T04:41:23;7.60;;;2.97;;
74213;SDS011;62576;55.694;37.494;2023-12-28T04:43:53;6.63;;;2.92;;
74213;SDS011;62576;55.694;37.494;2023-12-28T04:46:23;5.43;;;2.60;;
74213;SDS011;62576;55.694;37.494;2023-12-28T04:48:52;5.50;;;2.50;;
74213;SDS011;62576;55.694;37.494;2023-12-28T04:51:22;4.68;;;2.25;;
74213;SDS011;62576;55.694;37.494;2023-12-28T04:53:52;5.80;;;2.78;;
74213;SDS011;62576;55.694;37.494;2023-12-28T04:56:26;4.88;;;2.20;;
74213;SDS011;62576;55.694;37.494;2023-12-28T04:58:59;4.63;;;2.72;;
74213;SDS011;62576;55.694;37.494;2023-12-28T05:01:29;7.55;;;3.08;;
74213;SDS011;62576;55.694;37.494;2023-12-28T05:04:01;4.70;;;2.63;;
74213;SDS011;62576;55.694;37.494;2023-12-28T05:06:31;4.47;;;1.95;;
74213;SDS011;62576;55.694;37.494;2023-12-28T05:09:01;5.32;;;2.50;;
74213;SDS011;62576;55.694;37.494;2023-12-28T05:11:32;4.50;;;2.70;;
74213;SDS011;62576;55.694;37.494;2023-12-28T05:14:02;7.20;;;2.63;;
74213;SDS011;62576;55.694;37.494;2023-12-28T05:16:34;5.65;;;2.47;;
74213;SDS011;62576;55.694;37.494;2023-12-28T05:19:03;4.65;;;2.53;;
74213;SDS011;62576;55.694;37.494;2023-12-28T05:21:33;5.85;;;1.88;;
74213;SDS011;62576;55.694;37.494;2023-12-28T05:24:03;7.40;;;3.05;;
74213;SDS011;62576;55.694;37.494;2023-12-28T05:26:35;5.53;;;2.17;;
74213;SDS011;62576;55.694;37.494;2023-12-28T05:29:05;4.47;;;1.75;;
74213;SDS011;62576;55.694;37.494;2023-12-28T05:31:35;3.50;;;2.15;;
74213;SDS011;62576;55.694;37.494;2023-12-28T05:34:05;7.47;;;3.67;;
74213;SDS011;62576;55.694;37.494;2023-12-28T05:36:36;5.47;;;2.55;;
74213;SDS011;62576;55.694;37.494;2023-12-28T05:39:09;5.03;;;2.85;;
74213;SDS011;62576;55.694;37.494;2023-12-28T05:41:41;4.05;;;2.20;;
74213;SDS011;62576;55.694;37.494;2023-12-28T05:44:11;5.93;;;3.40;;
74213;SDS011;62576;55.694;37.494;2023-12-28T05:46:42;5.20;;;2.88;;
74213;SDS011;62576;55.694;37.494;2023-12-28T05:49:11;3.67;;;1.80;;
74213;SDS011;62576;55.694;37.494;2023-12-28T05:51:41;5.88;;;2.83;;
74213;SDS011;62576;55.694;37.494;2023-12-28T05:54:11;4.15;;;1.88;;
74213;SDS011;62576;55.694;37.494;2023-12-28T05:56:42;4.55;;;2.35;;
74213;SDS011;62576;55.694;37.494;2023-12-28T05:59:12;4.40;;;2.30;;
74213;SDS011;62576;55.694;37.494;2023-12-28T06:01:43;6.90;;;2.55;;
74213;SDS011;62576;55.694;37.494;2023-12-28T06:04:12;5.43;;;2.13;;
74213;SDS011;62576;55.694;37.494;2023-12-28T06:06:42;7.32;;;2.83;;
74213;SDS011;62576;55.694;37.494;2023-12-28T06:09:12;6.00;;;2.90;;
74213;SDS011;62576;55.694;37.494;2023-12-28T06:11:43;6.30;;;2.92;;
74213;SDS011;62576;55.694;37.494;2023-12-28T06:14:13;7.30;;;2.50;;
74213;SDS011;62576;55.694;37.494;2023-12-28T06:16:45;6.07;;;2.80;;
74213;SDS011;62576;55.694;37.494;2023-12-28T06:19:15;4.60;;;2.45;;
74213;SDS011;62576;55.694;37.494;2023-12-28T06:21:45;6.38;;;2.38;;
74213;SDS011;62576;55.694;37.494;2023-12-28T06:24:17;3.63;;;1.70;;
74213;SDS011;62576;55.694;37.494;2023-12-28T06:26:49;5.65;;;2.05;;
74213;SDS011;62576;55.694;37.494;2023-12-28T06:29:22;4.70;;;2.45;;
74213;SDS011;62576;55.694;37.494;2023-12-28T06:31:52;7.75;;;2.80;;
74213;SDS011;62576;55.694;37.494;2023-12-28T06:34:22;5.85;;;2.95;;
74213;SDS011;62576;55.694;37.494;2023-12-28T06:36:52;5.05;;;2.40;;
74213;SDS011;62576;55.694;37.494;2023-12-28T06:39:22;6.50;;;2.03;;
74213;SDS011;62576;55.694;37.494;2023-12-28T06:41:53;7.07;;;2.42;;
74213;SDS011;62576;55.694;37.494;2023-12-28T06:44:23;6.72;;;2.55;;
74213;SDS011;62576;55.694;37.494;2023-12-28T06:46:53;4.90;;;2.17;;
74213;SDS011;62576;55.694;37.494;2023-12-28T06:49:23;4.95;;;2.30;;
74213;SDS011;62576;55.694;37.494;2023-12-28T06:51:53;5.43;;;2.50;;
74213;SDS011;62576;55.694;37.494;2023-12-28T06:54:23;5.65;;;2.63;;
74213;SDS011;62576;55.694;37.494;2023-12-28T06:56:55;7.78;;;3.53;;
74213;SDS011;62576;55.694;37.494;2023-12-28T06:59:25;5.10;;;2.35;;
74213;SDS011;62576;55.694;37.494;2023-12-28T07:01:55;9.15;;;2.78;;
74213;SDS011;62576;55.694;37.494;2023-12-28T07:04:25;5.13;;;2.30;;
74213;SDS011;62576;55.694;37.494;2023-12-28T07:06:57;5.78;;;2.50;;
74213;SDS011;62576;55.694;37.494;2023-12-28T07:09:27;5.95;;;2.50;;
74213;SDS011;62576;55.694;37.494;2023-12-28T07:11:58;5.95;;;2.63;;
74213;SDS011;62576;55.694;37.494;2023-12-28T07:14:29;6.30;;;2.35;;
74213;SDS011;62576;55.694;37.494;2023-12-28T07:16:59;9.82;;;2.55;;
74213;SDS011;62576;55.694;37.494;2023-12-28T07:19:28;5.22;;;2.83;;
74213;SDS011;62576;55.694;37.494;2023-12-28T07:21:58;6.93;;;2.70;;
74213;SDS011;62576;55.694;37.494;2023-12-28T07:24:28;6.13;;;2.85;;
74213;SDS011;62576;55.694;37.494;2023-12-28T07:27:00;4.97;;;2.50;;
74213;SDS011;62576;55.694;37.494;2023-12-28T07:29:30;6.93;;;2.88;;
74213;SDS011;62576;55.694;37.494;2023-12-28T07:32:00;6.95;;;2.55;;
74213;SDS011;62576;55.694;37.494;2023-12-28T07:34:30;7.18;;;3.00;;
74213;SDS011;62576;55.694;37.494;2023-12-28T07:37:00;7.05;;;2.42;;
74213;SDS011;62576;55.694;37.494;2023-12-28T07:39:30;6.50;;;2.20;;
74213;SDS011;62576;55.694;37.494;2023-12-28T07:42:01;5.60;;;1.95;;
74213;SDS011;62576;55.694;37.494;2023-12-28T07:44:32;5.53;;;2.92;;
74213;SDS011;62576;55.694;37.494;2023-12-28T07:47:02;7.32;;;3.03;;
74213;SDS011;62576;55.694;37.494;2023-12-28T07:49:32;6.45;;;2.83;;
74213;SDS011;62576;55.694;37.494;2023-12-28T07:52:02;6.50;;;2.55;;
74213;SDS011;62576;55.694;37.494;2023-12-28T07:54:32;7.25;;;2.90;;
74213;SDS011;62576;55.694;37.494;2023-12-28T07:57:06;8.98;;;3.53;;
74213;SDS011;62576;55.694;37.494;2023-12-28T07:59:35;9.23;;;3.70;;
74213;SDS011;62576;55.694;37.494;2023-12-28T08:02:05;8.68;;;3.95;;
74213;SDS011;62576;55.694;37.494;2023-12-28T08:04:36;8.57;;;3.33;;
74213;SDS011;62576;55.694;37.494;2023-12-28T08:07:06;10.23;;;3.75;;
74213;SDS011;62576;55.694;37.494;2023-12-28T08:09:37;7.80;;;3.72;;
74213;SDS011;62576;55.694;37.494;2023-12-28T08:12:08;6.93;;;2.90;;
74213;SDS011;62576;55.694;37.494;2023-12-28T08:14:38;6.63;;;2.20;;
74213;SDS011;62576;55.694;37.494;2023-12-28T08:17:08;7.07;;;3.45;;
74213;SDS011;62576;55.694;37.494;2023-12-28T08:19:38;6.93;;;3.00;;
74213;SDS011;62576;55.694;37.494;2023-12-28T08:22:08;6.70;;;3.10;;
74213;SDS011;62576;55.694;37.494;2023-12-28T08:24:38;7.43;;;4.07;;
74213;SDS011;62576;55.694;37.494;2023-12-28T08:27:09;6.80;;;2.80;;
74213;SDS011;62576;55.694;37.494;2023-12-28T08:29:41;5.80;;;2.60;;
74213;SDS011;62576;55.694;37.494;2023-12-28T08:32:11;8.05;;;3.70;;
74213;SDS011;62576;55.694;37.494;2023-12-28T08:34:41;8.77;;;3.20;;
74213;SDS011;62576;55.694;37.494;2023-12-28T08:37:14;6.10;;;2.58;;
74213;SDS011;62576;55.694;37.494;2023-12-28T08:39:44;7.47;;;2.97;;
74213;SDS011;62576;55.694;37.494;2023-12-28T08:42:12;8.20;;;3.45;;
74213;SDS011;62576;55.694;37.494;2023-12-28T08:44:42;7.47;;;3.42;;
74213;SDS011;62576;55.694;37.494;2023-12-28T08:47:11;9.07;;;3.60;;
74213;SDS011;62576;55.694;37.494;2023-12-28T08:49:42;7.97;;;4.50;;
74213;SDS011;62576;55.694;37.494;2023-12-28T08:52:11;9.73;;;4.15;;
74213;SDS011;62576;55.694;37.494;2023-12-28T08:54:41;8.25;;;4.50;;
74213;SDS011;62576;55.694;37.494;2023-12-28T08:57:13;14.25;;;5.05;;
74213;SDS011;62576;55.694;37.494;2023-12-28T08:59:43;13.45;;;6.68;;
74213;SDS011;62576;55.694;37.494;2023-12-28T09:02:13;9.15;;;4.45;;
74213;SDS011;62576;55.694;37.494;2023-12-28T09:04:43;8.65;;;4.03;;
74213;SDS011;62576;55.694;37.494;2023-12-28T09:07:13;18.00;;;5.85;;
74213;SDS011;62576;55.694;37.494;2023-12-28T09:09:43;8.93;;;5.15;;
74213;SDS011;62576;55.694;37.494;2023-12-28T09:12:14;7.80;;;3.20;;
74213;SDS011;62576;55.694;37.494;2023-12-28T09:14:44;8.18;;;3.55;;
74213;SDS011;62576;55.694;37.494;2023-12-28T09:17:14;14.73;;;5.22;;
74213;SDS011;62576;55.694;37.494;2023-12-28T09:19:44;7.75;;;3.38;;
74213;SDS011;62576;55.694;37.494;2023-12-28T09:22:14;8.73;;;4.05;;
74213;SDS011;62576;55.694;37.494;2023-12-28T09:24:44;9.65;;;3.00;;
74213;SDS011;62576;55.694;37.494;2023-12-28T09:27:15;7.35;;;2.60;;
74213;SDS011;62576;55.694;37.494;2023-12-28T09:29:45;7.82;;;3.95;;
74213;SDS011;62576;55.694;37.494;2023-12-28T09:32:15;8.30;;;3.35;;
74213;SDS011;62576;55.694;37.494;2023-12-28T09:34:45;6.28;;;2.78;;
74213;SDS011;62576;55.694;37.494;2023-12-28T09:37:15;8.18;;;3.92;;
74213;SDS011;62576;55.694;37.494;2023-12-28T09:39:45;8.80;;;3.35;;
74213;SDS011;62576;55.694;37.494;2023-12-28T09:42:17;4.97;;;2.20;;
74213;SDS011;62576;55.694;37.494;2023-12-28T09:44:52;8.88;;;3.20;;
74213;SDS011;62576;55.694;37.494;2023-12-28T09:47:22;5.95;;;2.63;;
74213;SDS011;62576;55.694;37.494;2023-12-28T09:49:52;7.72;;;3.33;;
74213;SDS011;62576;55.694;37.494;2023-12-28T09:52:22;8.57;;;3.60;;
74213;SDS011;62576;55.694;37.494;2023-12-28T09:54:52;9.00;;;3.97;;
74213;SDS011;62576;55.694;37.494;2023-12-28T09:57:23;9.57;;;4.28;;
74213;SDS011;62576;55.694;37.494;2023-12-28T09:59:53;7.18;;;3.28;;
74213;SDS011;62576;55.694;37.494;2023-12-28T10:02:23;7.00;;;3.90;;
74213;SDS011;62576;55.694;37.494;2023-12-28T10:04:56;7.18;;;3.92;;
74213;SDS011;62576;55.694;37.494;2023-12-28T10:07:24;5.80;;;2.90;;
74213;SDS011;62576;55.694;37.494;2023-12-28T10:09:55;4.50;;;2.03;;
74213;SDS011;62576;55.694;37.494;2023-12-28T10:12:26;6.97;;;2.70;;
74213;SDS011;62576;55.694;37.494;2023-12-28T10:15:00;5.32;;;2.38;;
74213;SDS011;62576;55.694;37.494;2023-12-28T10:17:31;6.45;;;2.60;;
74213;SDS011;62576;55.694;37.494;2023-12-28T10:20:02;7.55;;;2.70;;
74213;SDS011;62576;55.694;37.494;2023-12-28T10:22:35;7.35;;;3.05;;
74213;SDS011;62576;55.694;37.494;2023-12-28T10:25:05;5.57;;;2.30;;
74213;SDS011;62576;55.694;37.494;2023-12-28T10:27:38;4.45;;;2.38;;
74213;SDS011;62576;55.694;37.494;2023-12-28T10:30:10;4.07;;;2.50;;
74213;SDS011;62576;55.694;37.494;2023-12-28T10:32:40;11.82;;;3.05;;
74213;SDS011;62576;55.694;37.494;2023-12-28T10:35:11;5.65;;;2.95;;
74213;SDS011;62576;55.694;37.494;2023-12-28T10:37:40;7.07;;;2.85;;
74213;SDS011;62576;55.694;37.494;2023-12-28T10:40:12;7.03;;;2.80;;
74213;SDS011;62576;55.694;37.494;2023-12-28T10:42:46;5.88;;;3.35;;
74213;SDS011;62576;55.694;37.494;2023-12-28T10:45:23;6.53;;;2.60;;
74213;SDS011;62576;55.694;37.494;2023-12-28T10:47:57;5.97;;;2.83;;
74213;SDS011;62576;55.694;37.494;2023-12-28T10:50:32;6.75;;;3.53;;
74213;SDS011;62576;55.694;37.494;2023-12-28T10:53:13;5.93;;;3.10;;
74213;SDS011;62576;55.694;37.494;2023-12-28T10:55:46;6.00;;;2.53;;
74213;SDS011;62576;55.694;37.494;2023-12-28T10:58:24;4.85;;;3.03;;
74213;SDS011;62576;55.694;37.494;2023-12-28T11:00:58;6.90;;;2.97;;
74213;SDS011;62576;55.694;37.494;2023-12-28T11:03:31;7.32;;;3.45;;
74213;SDS011;62576;55.694;37.494;2023-12-28T11:06:04;6.60;;;3.35;;
74213;SDS011;62576;55.694;37.494;2023-12-28T11:08:35;7.65;;;2.67;;
74213;SDS011;62576;55.694;37.494;2023-12-28T11:11:05;6.93;;;3.17;;
74213;SDS011;62576;55.694;37.494;2023-12-28T11:13:38;11.20;;;4.03;;
74213;SDS011;62576;55.694;37.494;2023-12-28T11:16:09;7.28;;;3.67;;
74213;SDS011;62576;55.694;37.494;2023-12-28T11:18:39;8.52;;;3.40;;
74213;SDS011;62576;55.694;37.494;2023-12-28T11:21:10;5.80;;;2.72;;
74213;SDS011;62576;55.694;37.494;2023-12-28T11:23:40;5.25;;;2.50;;
74213;SDS011;62576;55.694;37.494;2023-12-28T11:26:15;6.25;;;2.95;;
74213;SDS011;62576;55.694;37.494;2023-12-28T11:28:46;5.80;;;2.50;;
74213;SDS011;62576;55.694;37.494;2023-12-28T11:31:17;5.95;;;3.25;;
74213;SDS011;62576;55.694;37.494;2023-12-28T11:33:50;5.78;;;3.03;;
74213;SDS011;62576;55.694;37.494;2023-12-28T11:36:22;6.80;;;3.22;;
74213;SDS011;62576;55.694;37.494;2023-12-28T11:38:52;6.22;;;3.45;;
74213;SDS011;62576;55.694;37.494;2023-12-28T11:41:24;8.02;;;3.63;;
74213;SDS011;62576;55.694;37.494;2023-12-28T11:43:55;9.35;;;3.38;;
74213;SDS011;62576;55.694;37.494;2023-12-28T11:46:26;6.40;;;2.80;;
74213;SDS011;62576;55.694;37.494;2023-12-28T11:49:02;5.68;;;2.42;;
74213;SDS011;62576;55.694;37.494;2023-12-28T11:51:32;4.15;;;2.15;;
74213;SDS011;62576;55.694;37.494;2023-12-28T11:54:03;5.35;;;2.35;;
74213;SDS011;62576;55.694;37.494;2023-12-28T11:56:32;6.57;;;3.40;;
74213;SDS011;62576;55.694;37.494;2023-12-28T11:59:04;6.65;;;3.50;;
74213;SDS011;62576;55.694;37.494;2023-12-28T12:01:35;5.78;;;3.30;;
74213;SDS011;62576;55.694;37.494;2023-12-28T12:04:08;4.63;;;2.53;;
74213;SDS011;62576;55.694;37.494;2023-12-28T12:06:38;4.82;;;2.80;;
74213;SDS011;62576;55.694;37.494;2023-12-28T12:09:10;2.90;;;1.65;;
74213;SDS011;62576;55.694;37.494;2023-12-28T12:11:40;4.22;;;2.22;;
74213;SDS011;62576;55.694;37.494;2023-12-28T12:14:12;4.65;;;2.67;;
74213;SDS011;62576;55.694;37.494;2023-12-28T12:16:42;4.45;;;1.90;;
74213;SDS011;62576;55.694;37.494;2023-12-28T12:19:13;6.22;;;3.10;;
74213;SDS011;62576;55.694;37.494;2023-12-28T12:21:44;4.65;;;2.05;;
74213;SDS011;62576;55.694;37.494;2023-12-28T12:24:14;3.72;;;1.98;;
74213;SDS011;62576;55.694;37.494;2023-12-28T12:26:45;3.80;;;1.95;;
74213;SDS011;62576;55.694;37.494;2023-12-28T12:29:16;2.83;;;1.90;;
74213;SDS011;62576;55.694;37.494;2023-12-28T12:31:46;4.32;;;1.77;;
74213;SDS011;62576;55.694;37.494;2023-12-28T12:34:17;3.95;;;2.05;;
74213;SDS011;62576;55.694;37.494;2023-12-28T12:36:47;2.92;;;2.00;;
74213;SDS011;62576;55.694;37.494;2023-12-28T12:39:22;5.25;;;1.85;;
74213;SDS011;62576;55.694;37.494;2023-12-28T12:41:54;2.97;;;1.95;;
74213;SDS011;62576;55.694;37.494;2023-12-28T12:44:26;3.65;;;1.98;;
74213;SDS011;62576;55.694;37.494;2023-12-28T12:46:57;3.17;;;1.77;;
74213;SDS011;62576;55.694;37.494;2023-12-28T12:49:28;3.95;;;1.77;;
74213;SDS011;62576;55.694;37.494;2023-12-28T12:51:58;3.35;;;1.80;;
74213;SDS011;62576;55.694;37.494;2023-12-28T12:54:28;5.30;;;1.90;;
74213;SDS011;62576;55.694;37.494;2023-12-28T12:56:58;3.40;;;1.55;;
74213;SDS011;62576;55.694;37.494;2023-12-28T12:59:29;3.45;;;1.58;;
74213;SDS011;62576;55.694;37.494;2023-12-28T13:02:00;3.65;;;1.63;;
74213;SDS011;62576;55.694;37.494;2023-12-28T13:04:30;4.68;;;2.17;;
74213;SDS011;62576;55.694;37.494;2023-12-28T13:07:00;4.65;;;2.35;;
74213;SDS011;62576;55.694;37.494;2023-12-28T13:09:30;3.70;;;1.85;;
74213;SDS011;62576;55.694;37.494;2023-12-28T13:12:00;6.57;;;2.75;;
74213;SDS011;62576;55.694;37.494;2023-12-28T13:14:33;4.63;;;2.10;;
74213;SDS011;62576;55.694;37.494;2023-12-28T13:17:03;5.78;;;3.08;;
74213;SDS011;62576;55.694;37.494;2023-12-28T13:19:32;6.22;;;2.50;;
74213;SDS011;62576;55.694;37.494;2023-12-28T13:22:04;5.85;;;3.00;;
74213;SDS011;62576;55.694;37.494;2023-12-28T13:24:34;5.28;;;2.45;;
74213;SDS011;62576;55.694;37.494;2023-12-28T13:27:04;6.15;;;2.08;;
74213;SDS011;62576;55.694;37.494;2023-12-28T13:29:35;4.47;;;2.33;;
74213;SDS011;62576;55.694;37.494;2023-12-28T13:32:06;4.05;;;1.77;;
74213;SDS011;62576;55.694;37.494;2023-12-28T13:34:37;5.18;;;2.30;;
74213;SDS011;62576;55.694;37.494;2023-12-28T13:37:07;4.88;;;2.72;;
74213;SDS011;62576;55.694;37.494;2023-12-28T13:39:37;6.28;;;2.63;;
74213;SDS011;62576;55.694;37.494;2023-12-28T13:42:07;7.18;;;2.83;;
74213;SDS011;62576;55.694;37.494;2023-12-28T13:44:39;5.70;;;2.88;;
74213;SDS011;62576;55.694;37.494;2023-12-28T13:47:09;6.00;;;2.72;;
74213;SDS011;62576;55.694;37.494;2023-12-28T13:49:39;4.47;;;2.40;;
74213;SDS011;62576;55.694;37.494;2023-12-28T13:52:09;6.00;;;3.13;;
74213;SDS011;62576;55.694;37.494;2023-12-28T13:54:36;4.15;;;2.33;;
74213;SDS011;62576;55.694;37.494;2023-12-28T13:57:06;5.28;;;2.90;;
74213;SDS011;62576;55.694;37.494;2023-12-28T13:59:36;5.38;;;2.15;;
74213;SDS011;62576;55.694;37.494;2023-12-28T14:02:08;5.03;;;2.25;;
74213;SDS011;62576;55.694;37.494;2023-12-28T14:04:38;6.50;;;2.90;;
74213;SDS011;62576;55.694;37.494;2023-12-28T14:07:08;7.70;;;3.05;;
74213;SDS011;62576;55.694;37.494;2023-12-28T14:09:38;6.32;;;2.47;;
74213;SDS011;62576;55.694;37.494;2023-12-28T14:12:08;7.32;;;3.55;;
74213;SDS011;62576;55.694;37.494;2023-12-28T14:14:37;6.72;;;3.00;;
74213;SDS011;62576;55.694;37.494;2023-12-28T14:17:09;11.30;;;3.15;;
74213;SDS011;62576;55.694;37.494;2023-12-28T14:19:39;5.50;;;2.03;;
74213;SDS011;62576;55.694;37.494;2023-12-28T14:22:09;6.68;;;2.75;;
74213;SDS011;62576;55.694;37.494;2023-12-28T14:24:40;6.43;;;2.60;;
74213;SDS011;62576;55.694;37.494;2023-12-28T14:27:10;7.50;;;3.10;;
74213;SDS011;62576;55.694;37.494;2023-12-28T14:29:43;6.85;;;3.20;;
74213;SDS011;62576;55.694;37.494;2023-12-28T14:32:15;5.82;;;1.95;;
74213;SDS011;62576;55.694;37.494;2023-12-28T14:34:45;7.10;;;2.67;;
74213;SDS011;62576;55.694;37.494;2023-12-28T14:37:15;4.70;;;2.63;;
74213;SDS011;62576;55.694;37.494;2023-12-28T14:39:45;6.22;;;2.72;;
74213;SDS011;62576;55.694;37.494;2023-12-28T14:42:15;7.95;;;3.70;;
74213;SDS011;62576;55.694;37.494;2023-12-28T14:44:44;6.55;;;3.42;;
74213;SDS011;62576;55.694;37.494;2023-12-28T14:47:17;5.88;;;2.90;;
74213;SDS011;62576;55.694;37.494;2023-12-28T14:49:47;7.60;;;2.70;;
74213;SDS011;62576;55.694;37.494;2023-12-28T14:52:18;5.35;;;2.08;;